EST,Max TemperatureF,Mean TemperatureF,Min TemperatureF,Max Dew PointF,MeanDew PointF,Min DewpointF,Max Humidity, Mean Humidity, Min Humidity, Max Sea Level PressureIn, Mean Sea Level PressureIn, Min Sea Level PressureIn, Max VisibilityMiles, Mean VisibilityMiles, Min VisibilityMiles, Max Wind SpeedMPH, Mean Wind SpeedMPH, Max Gust SpeedMPH,PrecipitationIn, CloudCover, Events, WindDirDegrees
2012-12-1,58,46,34,48,39,32,99,87,66,30.22,30.09,29.89,10,4,0,24,10,32,0.00,7,Fog-Rain,137
2012-12-2,57,50,41,53,48,40,97,86,72,30.09,29.95,29.87,10,6,1,16,10,28,0.23,7,Rain,246
2012-12-3,63,49,35,58,50,35,99,93,74,30.09,29.97,29.81,10,4,0,23,9,38,0.00,7,Fog-Snow,161
2012-12-4,63,50,36,57,39,27,91,67,40,30.14,29.98,29.82,10,10,3,22,13,31,0.10,4,Rain,276
2012-12-5,36,30,25,26,21,17,86,66,53,30.40,30.33,30.15,10,10,10,16,8,23,0.00,2,,20
2012-12-6,38,32,26,33,26,22,84,75,64,30.30,30.09,29.90,10,10,10,16,7,22,0.00,3,Rain,172
2012-12-7,45,42,38,41,37,33,97,86,71,29.94,29.90,29.88,10,7,1,8,4,,0.02,8,Rain,205
2012-12-8,40,34,28,39,31,27,99,94,88,30.16,29.98,29.84,10,7,1,13,8,17,0.04,6,Rain-Snow,35
2012-12-9,32,31,30,32,29,27,99,92,85,30.16,29.95,29.66,10,7,2,17,9,26,0.04,7,Snow,74
2012-12-10,34,31,28,33,28,20,100,88,67,29.86,29.70,29.59,10,8,1,12,5,10,0.00,7,Snow,318
2012-12-11,34,28,22,29,23,19,96,77,59,30.07,29.96,29.87,10,10,3,18,6,25,0.00,7,Snow,194
2012-12-12,43,37,31,29,26,22,83,70,43,30.29,30.22,30.07,10,10,5,18,13,24,0.00,4,Snow,213
2012-12-13,45,38,30,26,25,24,78,65,44,30.29,30.21,30.11,10,10,10,17,10,23,0.00,0,,204
2012-12-14,45,36,28,34,30,26,93,79,61,30.22,30.16,30.12,10,9,7,8,5,,0.00,0,,152
2012-12-15,45,38,31,44,34,30,96,89,74,30.13,29.89,29.60,10,7,3,17,8,25,0.03,6,Rain,118
2012-12-16,48,44,40,47,43,38,98,91,79,29.65,29.59,29.56,10,8,2,15,10,21,0.05,8,Rain,233
2012-12-17,40,36,33,38,34,31,94,84,69,29.71,29.67,29.63,10,9,4,12,7,17,0.00,8,,267
2012-12-18,39,34,28,33,30,26,96,85,63,29.77,29.71,29.66,10,7,2,8,5,,0.00,6,Rain-Snow,252
2012-12-19,43,38,33,35,33,31,99,87,66,30.08,29.97,29.72,10,4,1,12,4,,0.03,8,Snow,300
2012-12-20,48,42,37,44,37,32,87,82,69,30.00,29.45,29.08,10,6,2,25,14,32,0.57,8,Rain-Snow,125
2012-12-21,40,36,33,34,27,21,87,71,57,29.96,29.55,29.14,10,7,1,23,14,40,0.00,8,Rain-Snow,319
2012-12-22,39,34,30,25,22,20,75,63,46,30.08,30.02,29.95,10,10,7,18,13,30,0.00,4,,278
2012-12-23,34,30,25,25,21,18,79,68,57,30.02,29.94,29.86,10,10,7,10,6,,0.00,4,,298
2012-12-24,31,26,22,24,20,17,77,73,67,30.02,29.93,29.83,10,10,4,15,6,,0.00,5,,44
2012-12-25,33,28,23,21,18,16,84,68,49,30.32,30.22,30.02,10,10,7,13,6,18,0.00,3,,23
2012-12-26,32,28,25,26,22,16,81,73,64,30.27,30.05,29.93,10,7,1,22,13,31,0.00,8,Snow,33
2012-12-27,33,28,23,20,18,16,79,69,49,30.14,30.08,29.97,10,9,3,12,6,18,0.00,4,Snow,319
2012-12-28,32,26,19,27,22,14,86,80,67,30.14,30.05,29.91,10,7,2,7,2,,0.00,8,Snow,97
2012-12-29,32,28,24,25,22,18,84,74,62,30.06,29.90,29.84,10,8,2,8,6,,0.00,7,Snow,5
2012-12-30,31,28,25,27,22,17,85,74,66,30.24,30.17,30.06,10,8,5,20,9,26,0.00,7,Snow,239
2012-12-31,39,32,26,28,22,14,74,67,53,30.10,29.96,29.88,10,9,5,21,11,29,0.00,5,,256